MSC Clorinda — 3FDW7 — position and weather

sailwx.info

Track history (hours):
 
Tides and Currents Weather Stations Pressure Air Temp Water Temp Dewpoint Dewpoint Depression Visibility Wind Speed Wind Dir Waves Ship Positions

MSC Clorinda

Last reported at 2016-May-01 07:28 UTC. Time now 2016-May-01 07:57 UTC.
Position N 38°27' E 015°54'.

Length 366 m; draft 14.5 m.

Type: Ship (hazmat cat A). MMSI: 373233000.

Date/timePositionNaut miles runAvg speedWind from/ knotsBaromVisibWave heightAir tempDewpointWater temp
2016-May-01 07:28N 38°27' E 015°54'0 0.0
2016-May-01 06:22N 38°27' E 015°54'0 0.0
2016-May-01 05:31N 38°27' E 015°54'0 0.0
2016-May-01 04:31N 38°27' E 015°54'0 0.0
2016-May-01 03:31N 38°27' E 015°54'0 0.0
2016-May-01 02:28N 38°27' E 015°54'0 0.0
2016-May-01 01:31N 38°27' E 015°54'0 0.0
2016-May-01 00:31N 38°27' E 015°54'0 0.0
2016-Apr-30 23:28N 38°27' E 015°54'0 0.0
2016-Apr-30 22:31N 38°27' E 015°54'0 0.0
2016-Apr-30 21:28N 38°27' E 015°54'0 0.0
2016-Apr-30 20:22N 38°27' E 015°54'0 0.0
2016-Apr-30 19:31N 38°27' E 015°54'0 0.0
2016-Apr-30 18:19N 38°27' E 015°54'0 0.0
2016-Apr-30 17:31N 38°27' E 015°54'0 0.0
2016-Apr-30 16:31N 38°27' E 015°54'0 0.0
2016-Apr-30 15:31N 38°27' E 015°54'0 0.0
2016-Apr-30 14:31N 38°27' E 015°54'0 0.1
2016-Apr-30 13:33N 38°27' E 015°54'9 8.9
2016-Apr-30 12:33N 38°30' E 015°44'1615.9
2016-Apr-30 11:33N 38°37' E 015°25'1616.2
2016-Apr-30 10:33N 38°45' E 015°07'1413.2
2016-Apr-30 09:31N 38°53' E 014°54'1212.8
2016-Apr-30 08:33N 39°01' E 014°41'4812.0
2016-Apr-30 04:31N 39°34' E 013°55'1010.6
2016-Apr-30 03:33N 39°40' E 013°44'1313.0
2016-Apr-30 02:33N 39°48' E 013°31'1312.7
2016-Apr-30 01:32N 39°57' E 013°18'4511.1
2016-Apr-29 21:31N 40°26' E 012°35'1212.8
2016-Apr-29 20:33N 40°35' E 012°23'1211.7
2016-Apr-29 19:33N 40°42' E 012°11'1111.3
2016-Apr-29 18:33N 40°50' E 012°00'2813.1
2016-Apr-29 16:24N 41°09' E 011°33'12211.3
2016-Apr-29 05:32N 42°42' E 009°45'2612.4
2016-Apr-29 03:24N 43°08' E 009°40'1011.9
2016-Apr-29 02:33N 43°18' E 009°42'1212.1
2016-Apr-29 01:33N 43°30' E 009°45'1212.4
2016-Apr-29 00:33N 43°42' E 009°48'1212.5
2016-Apr-28 23:33N 43°53' E 009°55'1111.3
2016-Apr-28 22:33N 44°04' E 009°51'2 1.9
2016-Apr-28 21:31N 44°06' E 009°51'0 0.0
2016-Apr-28 20:31N 44°06' E 009°51'0 0.0
2016-Apr-28 19:28N 44°06' E 009°51'0 0.0
2016-Apr-28 18:31N 44°06' E 009°51'0 0.0
2016-Apr-28 17:31N 44°06' E 009°51'0 0.0
2016-Apr-28 16:28N 44°06' E 009°51'0 0.0
2016-Apr-28 15:31N 44°06' E 009°51'0 0.0
2016-Apr-28 14:28N 44°06' E 009°51'0 0.0
2016-Apr-28 13:31N 44°06' E 009°51'0 0.0
2016-Apr-28 12:31N 44°06' E 009°51'0 0.0
2016-Apr-28 11:31N 44°06' E 009°51'0 0.0
2016-Apr-28 10:31N 44°06' E 009°51'0 0.0
2016-Apr-28 09:31N 44°06' E 009°51'0 0.0
2016-Apr-28 08:31N 44°06' E 009°51'0 0.0
2016-Apr-28 07:31N 44°06' E 009°51'0 0.0
2016-Apr-28 06:31N 44°06' E 009°51'0 0.0
2016-Apr-28 05:31N 44°06' E 009°51'0 0.0
2016-Apr-28 04:28N 44°06' E 009°51'0 0.0
2016-Apr-28 03:31N 44°06' E 009°51'0 0.0
2016-Apr-28 02:31N 44°06' E 009°51'0 0.0
2016-Apr-28 01:31N 44°06' E 009°51'0 0.0
2016-Apr-28 00:31N 44°06' E 009°51'0 0.0
2016-Apr-27 23:31N 44°06' E 009°51'0 0.0
2016-Apr-27 22:31N 44°06' E 009°51'3 3.5
2016-Apr-27 21:33N 44°03' E 009°52'8 8.3
2016-Apr-27 20:34N 43°55' E 009°56'1818.5
2016-Apr-27 19:34N 43°46' E 009°34'2020.4
2016-Apr-27 18:34N 43°34' E 009°12'2221.6
2016-Apr-27 17:34N 43°22' E 008°47'28620.4
2016-Apr-27 03:33N 41°22' E 002°55'2120.7
2016-Apr-27 02:33N 41°07' E 002°36'2121.1
2016-Apr-27 01:33N 40°52' E 002°16'2121.4
2016-Apr-27 00:33N 40°37' E 001°56'2121.2
2016-Apr-26 23:33N 40°22' E 001°37'2120.8
2016-Apr-26 22:33N 40°07' E 001°18'2121.0
2016-Apr-26 21:32N 39°52' E 000°58'6220.8
2016-Apr-26 18:33N 39°26' W 000°15'4 3.7
2016-Apr-26 17:33N 39°26' W 000°20'0 0.0
2016-Apr-26 16:33N 39°26' W 000°20'0 0.0
2016-Apr-26 15:33N 39°26' W 000°20'0 0.0
2016-Apr-26 14:33N 39°26' W 000°20'0 0.0
2016-Apr-26 13:33N 39°26' W 000°20'0 0.0
2016-Apr-26 12:33N 39°26' W 000°20'0 0.0
2016-Apr-26 11:33N 39°26' W 000°20'0 0.0
2016-Apr-26 10:33N 39°26' W 000°20'0 0.0
2016-Apr-26 09:30N 39°26' W 000°20'0 0.0
2016-Apr-26 08:33N 39°26' W 000°20'0 0.0
2016-Apr-26 07:33N 39°26' W 000°20'0 0.0
2016-Apr-26 06:33N 39°26' W 000°20'0 0.0
2016-Apr-26 05:33N 39°26' W 000°20'0 0.0
2016-Apr-26 04:30N 39°26' W 000°20'0 0.0
2016-Apr-26 03:33N 39°26' W 000°20'0 0.0
2016-Apr-26 02:33N 39°26' W 000°20'0 0.0
2016-Apr-26 01:27N 39°26' W 000°20'0 0.0
2016-Apr-26 00:33N 39°26' W 000°20'0 0.0
2016-Apr-25 23:21N 39°26' W 000°20'0 0.0
2016-Apr-25 22:33N 39°26' W 000°20'0 0.0
2016-Apr-25 21:30N 39°26' W 000°20'0 0.0
2016-Apr-25 20:33N 39°26' W 000°20'0 0.0
2016-Apr-25 19:33N 39°26' W 000°20'0 0.0
2016-Apr-25 18:33N 39°26' W 000°20'0 0.0
2016-Apr-25 17:33N 39°26' W 000°20'0 0.0
2016-Apr-25 16:33N 39°26' W 000°20'0 0.0
2016-Apr-25 15:27N 39°26' W 000°20'0 0.0
2016-Apr-25 14:24N 39°26' W 000°20'0 0.0
2016-Apr-25 12:27N 39°26' W 000°20'0 0.0
2016-Apr-25 11:33N 39°26' W 000°20'0 0.0
2016-Apr-25 10:33N 39°26' W 000°20'0 0.0
2016-Apr-25 09:33N 39°26' W 000°20'0 0.0
2016-Apr-25 08:30N 39°26' W 000°20'0 0.0
2016-Apr-25 07:30N 39°26' W 000°20'0 0.0
2016-Apr-25 06:33N 39°26' W 000°20'0 0.0
2016-Apr-25 05:33N 39°26' W 000°20'0 0.0
2016-Apr-25 04:33N 39°26' W 000°20'0 0.0
2016-Apr-25 03:33N 39°26' W 000°20'0 0.0
2016-Apr-25 02:33N 39°26' W 000°20'0 0.0
2016-Apr-25 01:33N 39°26' W 000°20'0 0.0
2016-Apr-25 00:33N 39°26' W 000°20'0 0.0
2016-Apr-24 23:27N 39°26' W 000°20'0 0.1
2016-Apr-24 22:33N 39°26' W 000°20'4 4.4
2016-Apr-24 21:33N 39°26' W 000°14'5416.8
2016-Apr-24 18:22N 40°03' E 000°37'1518.8
2016-Apr-24 17:33N 40°14' E 000°51'1919.2
2016-Apr-24 16:33N 40°26' E 001°10'1919.1
2016-Apr-24 15:33N 40°39' E 001°28'1918.8
2016-Apr-24 14:33N 40°54' E 001°44'1919.0
2016-Apr-24 13:33N 41°08' E 002°01'1313.0
2016-Apr-24 12:33N 41°19' E 002°10'1 0.1
2016-Apr-24 03:13N 41°18' E 002°09'0 0.0
2016-Apr-24 02:25N 41°18' E 002°09'0 0.0
2016-Apr-23 22:13N 41°18' E 002°09'0 0.0
2016-Apr-23 21:28N 41°18' E 002°09'0 0.0
2016-Apr-23 20:31N 41°18' E 002°09'0 0.0
2016-Apr-23 19:31N 41°18' E 002°09'0 0.0
2016-Apr-23 18:31N 41°18' E 002°09'0 0.0
2016-Apr-23 17:31N 41°18' E 002°09'0 0.0
2016-Apr-23 16:19N 41°18' E 002°09'0 0.0
2016-Apr-23 15:31N 41°18' E 002°09'0 0.0
2016-Apr-23 14:31N 41°18' E 002°09'0 0.0
2016-Apr-23 13:31N 41°18' E 002°09'0 0.0
2016-Apr-23 12:31N 41°18' E 002°09'0 0.0
2016-Apr-23 11:07N 41°18' E 002°09'1 1.1
2016-Apr-23 10:33N 41°19' E 002°09'5 5.1
2016-Apr-23 09:33N 41°15' E 002°15'1514.9
2016-Apr-23 08:33N 41°09' E 002°32'1717.2
2016-Apr-23 07:33N 41°01' E 002°52'1716.8
2016-Apr-23 06:33N 40°52' E 003°12'1717.2
2016-Apr-23 05:33N 40°43' E 003°30'2317.5
2016-Apr-23 04:15N 40°29' E 003°55'28719.1
2016-Apr-22 13:16N 38°05' E 009°14'10718.7
2016-Apr-22 07:33N 37°24' E 011°20'1919.2
2016-Apr-22 06:33N 37°12' E 011°38'2019.6
2016-Apr-22 05:33N 36°58' E 011°56'2019.5
2016-Apr-22 04:30N 36°46' E 012°17'4319.6
2016-Apr-22 02:19N 36°24' E 013°02'4019.4
2016-Apr-22 00:17N 36°04' E 013°45'1419.5
2016-Apr-21 23:33N 35°57' E 014°00'1918.8
2016-Apr-21 22:33N 35°47' E 014°20'  
Track history (hours):
 
Tides and Currents Weather Stations Pressure Air Temp Water Temp Dewpoint Dewpoint Depression Visibility Wind Speed Wind Dir Waves Ship Positions

MSC Clorinda

Last reported at 2016-May-01 07:28 UTC. Time now 2016-May-01 07:57 UTC.
Position N 38°27' E 015°54'.

Length 366 m; draft 14.5 m.

Type: Ship (hazmat cat A). MMSI: 373233000.

Date/timePositionNaut miles runAvg speedWind from/ knotsBaromVisibWave heightAir tempDewpointWater temp
2016-May-01 07:28N 38°27' E 015°54'0 0.0
2016-May-01 06:22N 38°27' E 015°54'0 0.0
2016-May-01 05:31N 38°27' E 015°54'0 0.0
2016-May-01 04:31N 38°27' E 015°54'0 0.0
2016-May-01 03:31N 38°27' E 015°54'0 0.0
2016-May-01 02:28N 38°27' E 015°54'0 0.0
2016-May-01 01:31N 38°27' E 015°54'0 0.0
2016-May-01 00:31N 38°27' E 015°54'0 0.0
2016-Apr-30 23:28N 38°27' E 015°54'0 0.0
2016-Apr-30 22:31N 38°27' E 015°54'0 0.0
2016-Apr-30 21:28N 38°27' E 015°54'0 0.0
2016-Apr-30 20:22N 38°27' E 015°54'0 0.0
2016-Apr-30 19:31N 38°27' E 015°54'0 0.0
2016-Apr-30 18:19N 38°27' E 015°54'0 0.0
2016-Apr-30 17:31N 38°27' E 015°54'0 0.0
2016-Apr-30 16:31N 38°27' E 015°54'0 0.0
2016-Apr-30 15:31N 38°27' E 015°54'0 0.0
2016-Apr-30 14:31N 38°27' E 015°54'0 0.1
2016-Apr-30 13:33N 38°27' E 015°54'9 8.9
2016-Apr-30 12:33N 38°30' E 015°44'1615.9
2016-Apr-30 11:33N 38°37' E 015°25'1616.2
2016-Apr-30 10:33N 38°45' E 015°07'1413.2
2016-Apr-30 09:31N 38°53' E 014°54'1212.8
2016-Apr-30 08:33N 39°01' E 014°41'4812.0
2016-Apr-30 04:31N 39°34' E 013°55'1010.6
2016-Apr-30 03:33N 39°40' E 013°44'1313.0
2016-Apr-30 02:33N 39°48' E 013°31'1312.7
2016-Apr-30 01:32N 39°57' E 013°18'4511.1
2016-Apr-29 21:31N 40°26' E 012°35'1212.8
2016-Apr-29 20:33N 40°35' E 012°23'1211.7
2016-Apr-29 19:33N 40°42' E 012°11'1111.3
2016-Apr-29 18:33N 40°50' E 012°00'2813.1
2016-Apr-29 16:24N 41°09' E 011°33'12211.3
2016-Apr-29 05:32N 42°42' E 009°45'2612.4
2016-Apr-29 03:24N 43°08' E 009°40'1011.9
2016-Apr-29 02:33N 43°18' E 009°42'1212.1
2016-Apr-29 01:33N 43°30' E 009°45'1212.4
2016-Apr-29 00:33N 43°42' E 009°48'1212.5
2016-Apr-28 23:33N 43°53' E 009°55'1111.3
2016-Apr-28 22:33N 44°04' E 009°51'2 1.9
2016-Apr-28 21:31N 44°06' E 009°51'0 0.0
2016-Apr-28 20:31N 44°06' E 009°51'0 0.0
2016-Apr-28 19:28N 44°06' E 009°51'0 0.0
2016-Apr-28 18:31N 44°06' E 009°51'0 0.0
2016-Apr-28 17:31N 44°06' E 009°51'0 0.0
2016-Apr-28 16:28N 44°06' E 009°51'0 0.0
2016-Apr-28 15:31N 44°06' E 009°51'0 0.0
2016-Apr-28 14:28N 44°06' E 009°51'0 0.0
2016-Apr-28 13:31N 44°06' E 009°51'0 0.0
2016-Apr-28 12:31N 44°06' E 009°51'0 0.0
2016-Apr-28 11:31N 44°06' E 009°51'0 0.0
2016-Apr-28 10:31N 44°06' E 009°51'0 0.0
2016-Apr-28 09:31N 44°06' E 009°51'0 0.0
2016-Apr-28 08:31N 44°06' E 009°51'0 0.0
2016-Apr-28 07:31N 44°06' E 009°51'0 0.0
2016-Apr-28 06:31N 44°06' E 009°51'0 0.0
2016-Apr-28 05:31N 44°06' E 009°51'0 0.0
2016-Apr-28 04:28N 44°06' E 009°51'0 0.0
2016-Apr-28 03:31N 44°06' E 009°51'0 0.0
2016-Apr-28 02:31N 44°06' E 009°51'0 0.0
2016-Apr-28 01:31N 44°06' E 009°51'0 0.0
2016-Apr-28 00:31N 44°06' E 009°51'0 0.0
2016-Apr-27 23:31N 44°06' E 009°51'0 0.0
2016-Apr-27 22:31N 44°06' E 009°51'3 3.5
2016-Apr-27 21:33N 44°03' E 009°52'8 8.3
2016-Apr-27 20:34N 43°55' E 009°56'1818.5
2016-Apr-27 19:34N 43°46' E 009°34'2020.4
2016-Apr-27 18:34N 43°34' E 009°12'2221.6
2016-Apr-27 17:34N 43°22' E 008°47'28620.4
2016-Apr-27 03:33N 41°22' E 002°55'2120.7
2016-Apr-27 02:33N 41°07' E 002°36'2121.1
2016-Apr-27 01:33N 40°52' E 002°16'2121.4
2016-Apr-27 00:33N 40°37' E 001°56'2121.2
2016-Apr-26 23:33N 40°22' E 001°37'2120.8
2016-Apr-26 22:33N 40°07' E 001°18'2121.0
2016-Apr-26 21:32N 39°52' E 000°58'6220.8
2016-Apr-26 18:33N 39°26' W 000°15'4 3.7
2016-Apr-26 17:33N 39°26' W 000°20'0 0.0
2016-Apr-26 16:33N 39°26' W 000°20'0 0.0
2016-Apr-26 15:33N 39°26' W 000°20'0 0.0
2016-Apr-26 14:33N 39°26' W 000°20'0 0.0
2016-Apr-26 13:33N 39°26' W 000°20'0 0.0
2016-Apr-26 12:33N 39°26' W 000°20'0 0.0
2016-Apr-26 11:33N 39°26' W 000°20'0 0.0
2016-Apr-26 10:33N 39°26' W 000°20'0 0.0
2016-Apr-26 09:30N 39°26' W 000°20'0 0.0
2016-Apr-26 08:33N 39°26' W 000°20'0 0.0
2016-Apr-26 07:33N 39°26' W 000°20'0 0.0
2016-Apr-26 06:33N 39°26' W 000°20'0 0.0
2016-Apr-26 05:33N 39°26' W 000°20'0 0.0
2016-Apr-26 04:30N 39°26' W 000°20'0 0.0
2016-Apr-26 03:33N 39°26' W 000°20'0 0.0
2016-Apr-26 02:33N 39°26' W 000°20'0 0.0
2016-Apr-26 01:27N 39°26' W 000°20'0 0.0
2016-Apr-26 00:33N 39°26' W 000°20'0 0.0
2016-Apr-25 23:21N 39°26' W 000°20'0 0.0
2016-Apr-25 22:33N 39°26' W 000°20'0 0.0
2016-Apr-25 21:30N 39°26' W 000°20'0 0.0
2016-Apr-25 20:33N 39°26' W 000°20'0 0.0
2016-Apr-25 19:33N 39°26' W 000°20'0 0.0
2016-Apr-25 18:33N 39°26' W 000°20'0 0.0
2016-Apr-25 17:33N 39°26' W 000°20'0 0.0
2016-Apr-25 16:33N 39°26' W 000°20'0 0.0
2016-Apr-25 15:27N 39°26' W 000°20'0 0.0
2016-Apr-25 14:24N 39°26' W 000°20'0 0.0
2016-Apr-25 12:27N 39°26' W 000°20'0 0.0
2016-Apr-25 11:33N 39°26' W 000°20'0 0.0
2016-Apr-25 10:33N 39°26' W 000°20'0 0.0
2016-Apr-25 09:33N 39°26' W 000°20'0 0.0
2016-Apr-25 08:30N 39°26' W 000°20'0 0.0
2016-Apr-25 07:30N 39°26' W 000°20'0 0.0
2016-Apr-25 06:33N 39°26' W 000°20'0 0.0
2016-Apr-25 05:33N 39°26' W 000°20'0 0.0
2016-Apr-25 04:33N 39°26' W 000°20'0 0.0
2016-Apr-25 03:33N 39°26' W 000°20'0 0.0
2016-Apr-25 02:33N 39°26' W 000°20'0 0.0
2016-Apr-25 01:33N 39°26' W 000°20'0 0.0
2016-Apr-25 00:33N 39°26' W 000°20'0 0.0
2016-Apr-24 23:27N 39°26' W 000°20'0 0.1
2016-Apr-24 22:33N 39°26' W 000°20'4 4.4
2016-Apr-24 21:33N 39°26' W 000°14'5416.8
2016-Apr-24 18:22N 40°03' E 000°37'1518.8
2016-Apr-24 17:33N 40°14' E 000°51'1919.2
2016-Apr-24 16:33N 40°26' E 001°10'1919.1
2016-Apr-24 15:33N 40°39' E 001°28'1918.8
2016-Apr-24 14:33N 40°54' E 001°44'1919.0
2016-Apr-24 13:33N 41°08' E 002°01'1313.0
2016-Apr-24 12:33N 41°19' E 002°10'1 0.1
2016-Apr-24 03:13N 41°18' E 002°09'0 0.0
2016-Apr-24 02:25N 41°18' E 002°09'0 0.0
2016-Apr-23 22:13N 41°18' E 002°09'0 0.0
2016-Apr-23 21:28N 41°18' E 002°09'0 0.0
2016-Apr-23 20:31N 41°18' E 002°09'0 0.0
2016-Apr-23 19:31N 41°18' E 002°09'0 0.0
2016-Apr-23 18:31N 41°18' E 002°09'0 0.0
2016-Apr-23 17:31N 41°18' E 002°09'0 0.0
2016-Apr-23 16:19N 41°18' E 002°09'0 0.0
2016-Apr-23 15:31N 41°18' E 002°09'0 0.0
2016-Apr-23 14:31N 41°18' E 002°09'0 0.0
2016-Apr-23 13:31N 41°18' E 002°09'0 0.0
2016-Apr-23 12:31N 41°18' E 002°09'0 0.0
2016-Apr-23 11:07N 41°18' E 002°09'1 1.1
2016-Apr-23 10:33N 41°19' E 002°09'5 5.1
2016-Apr-23 09:33N 41°15' E 002°15'1514.9
2016-Apr-23 08:33N 41°09' E 002°32'1717.2
2016-Apr-23 07:33N 41°01' E 002°52'1716.8
2016-Apr-23 06:33N 40°52' E 003°12'1717.2
2016-Apr-23 05:33N 40°43' E 003°30'2317.5
2016-Apr-23 04:15N 40°29' E 003°55'28719.1
2016-Apr-22 13:16N 38°05' E 009°14'10718.7
2016-Apr-22 07:33N 37°24' E 011°20'1919.2
2016-Apr-22 06:33N 37°12' E 011°38'2019.6
2016-Apr-22 05:33N 36°58' E 011°56'2019.5
2016-Apr-22 04:30N 36°46' E 012°17'4319.6
2016-Apr-22 02:19N 36°24' E 013°02'4019.4
2016-Apr-22 00:17N 36°04' E 013°45'1419.5
2016-Apr-21 23:33N 35°57' E 014°00'1918.8
2016-Apr-21 22:33N 35°47' E 014°20'  

Dump ship's entire track history